createdAt,value
2023-01-09T00:01:54.580Z,84.78
2023-01-09T00:04:21.628Z,84.26
2023-01-09T00:07:05.971Z,84.27
2023-01-09T00:09:33.854Z,85.23
2023-01-09T00:12:02.522Z,85.02
2023-01-09T00:14:31.985Z,85.04
2023-01-09T00:17:00.470Z,84.83
2023-01-09T00:19:28.572Z,85.35
2023-01-09T00:21:58.363Z,84.29
2023-01-09T00:24:26.397Z,85.13
2023-01-09T00:26:53.307Z,83.93
2023-01-09T00:29:20.800Z,84.86
2023-01-09T00:31:49.134Z,85.13
2023-01-09T00:34:16.019Z,84.98
2023-01-09T00:36:42.992Z,84.48
2023-01-09T00:39:10.100Z,84.57
2023-01-09T00:41:49.076Z,84.47
2023-01-09T00:44:27.904Z,84.30
2023-01-09T00:47:05.197Z,84.44
2023-01-09T00:49:35.527Z,84.85
2023-01-09T00:52:05.134Z,84.54
2023-01-09T00:54:32.471Z,84.01
2023-01-09T00:56:59.769Z,84.59
2023-01-09T00:59:27.926Z,84.87
2023-01-09T01:01:56.331Z,84.28
2023-01-09T01:04:43.151Z,84.72
2023-01-09T01:07:30.265Z,84.64
2023-01-09T01:09:57.267Z,84.51
2023-01-09T01:12:25.432Z,84.41
2023-01-09T01:14:52.948Z,83.89
2023-01-09T01:17:19.888Z,84.04
2023-01-09T01:19:46.885Z,83.89
2023-01-09T01:22:13.727Z,83.67
2023-01-09T01:24:41.990Z,83.93
2023-01-09T01:27:08.905Z,84.10
2023-01-09T01:29:35.790Z,84.37
2023-01-09T01:32:02.787Z,84.26
2023-01-09T01:34:30.097Z,83.91
2023-01-09T01:36:58.083Z,84.41
2023-01-09T01:39:24.956Z,84.30
2023-01-09T01:41:51.815Z,84.13
2023-01-09T01:44:56.085Z,85.28
2023-01-09T01:47:28.945Z,85.63
2023-01-09T01:49:56.423Z,85.07
2023-01-09T01:52:25.102Z,84.68
2023-01-09T01:54:52.442Z,84.41
2023-01-09T01:57:19.892Z,85.20
2023-01-09T01:59:55.295Z,84.81
2023-01-09T02:02:27.648Z,84.58
2023-01-09T02:04:57.031Z,84.16
2023-01-09T02:07:24.387Z,84.38
2023-01-09T02:09:51.908Z,84.22
2023-01-09T02:12:23.232Z,83.55
2023-01-09T02:14:57.924Z,83.88
2023-01-09T02:17:53.265Z,84.22
2023-01-09T02:20:40.151Z,83.21
2023-01-09T02:23:16.104Z,83.59
2023-01-09T02:26:17.037Z,82.83
2023-01-09T02:29:10.392Z,82.20
2023-01-09T02:31:50.299Z,82.41
2023-01-09T02:34:26.425Z,82.70
2023-01-09T02:37:21.156Z,82.42
2023-01-09T02:39:50.993Z,82.36
2023-01-09T02:42:23.252Z,82.39
2023-01-09T02:44:51.113Z,81.87
2023-01-09T02:47:17.882Z,82.12
2023-01-09T02:49:51.937Z,81.92
2023-01-09T02:52:36.989Z,82.01
2023-01-09T02:55:13.571Z,82.28
2023-01-09T02:57:54.358Z,81.99
2023-01-09T03:00:53.746Z,81.32
2023-01-09T03:03:33.366Z,80.96
2023-01-09T03:06:35.841Z,81.40
2023-01-09T03:09:09.383Z,81.10
2023-01-09T03:11:42.269Z,81.24
2023-01-09T03:14:14.979Z,81.26
2023-01-09T03:16:45.564Z,81.46
2023-01-09T03:19:18.659Z,81.12
2023-01-09T03:21:47.106Z,80.91
2023-01-09T03:24:14.262Z,80.53
2023-01-09T03:26:41.857Z,80.17
2023-01-09T03:29:09.204Z,80.71
2023-01-09T03:31:36.075Z,80.57
2023-01-09T03:34:04.460Z,80.40
2023-01-09T03:36:31.311Z,80.97
2023-01-09T03:38:58.223Z,80.58
2023-01-09T03:41:25.427Z,80.73
2023-01-09T03:43:52.263Z,80.07
2023-01-09T03:46:20.315Z,80.42
2023-01-09T03:48:48.568Z,80.45
2023-01-09T03:51:15.498Z,80.39
2023-01-09T03:53:42.292Z,80.87
2023-01-09T03:56:09.197Z,80.26
2023-01-09T03:58:36.148Z,80.64
2023-01-09T04:01:08.820Z,80.72
2023-01-09T04:03:39.985Z,80.96
2023-01-09T04:06:08.946Z,80.30
2023-01-09T04:08:35.730Z,80.27
2023-01-09T04:11:02.621Z,80.38
2023-01-09T04:13:29.529Z,80.34
2023-01-09T04:15:57.199Z,80.54
2023-01-09T04:18:25.070Z,80.60
2023-01-09T04:20:55.495Z,80.88
2023-01-09T04:23:22.780Z,80.93
2023-01-09T04:25:49.618Z,81.50
2023-01-09T04:28:16.487Z,81.38
2023-01-09T04:30:43.317Z,81.04
2023-01-09T04:33:10.199Z,81.65
2023-01-09T04:35:37.155Z,81.40
2023-01-09T04:38:04.002Z,81.81
2023-01-09T04:40:30.944Z,81.23
2023-01-09T04:42:59.381Z,81.27
2023-01-09T04:45:26.215Z,80.95
2023-01-09T04:47:53.091Z,81.56
2023-01-09T04:50:20.117Z,81.67
2023-01-09T04:52:48.164Z,81.15
2023-01-09T04:55:15.568Z,80.98
2023-01-09T04:57:42.427Z,80.42
2023-01-09T05:00:11.639Z,80.57
2023-01-09T05:02:39.859Z,80.17
2023-01-09T05:05:11.293Z,80.74
2023-01-09T05:07:38.747Z,80.65
2023-01-09T05:10:07.379Z,80.65
2023-01-09T05:12:35.729Z,80.89
2023-01-09T05:15:04.524Z,81.24
2023-01-09T05:17:31.850Z,81.11
2023-01-09T05:20:00.419Z,80.50
2023-01-09T05:22:27.465Z,80.74
2023-01-09T05:24:54.335Z,80.79
2023-01-09T05:27:21.223Z,81.39
2023-01-09T05:29:48.142Z,81.38
2023-01-09T05:32:16.055Z,81.31
2023-01-09T05:34:42.867Z,81.70
2023-01-09T05:37:11.182Z,81.22
2023-01-09T05:39:37.999Z,81.19
2023-01-09T05:42:06.569Z,81.46
2023-01-09T05:44:33.480Z,81.86
2023-01-09T05:47:03.085Z,81.44
2023-01-09T05:49:30.179Z,81.53
2023-01-09T05:51:58.179Z,81.41
2023-01-09T05:54:26.565Z,81.10
2023-01-09T05:56:54.845Z,81.23
2023-01-09T05:59:21.745Z,81.35
2023-01-09T06:01:48.718Z,82.37
2023-01-09T06:04:15.949Z,82.14
2023-01-09T06:06:42.835Z,82.05
2023-01-09T06:09:09.782Z,82.26
2023-01-09T06:11:38.108Z,82.65
2023-01-09T06:14:06.066Z,82.64
2023-01-09T06:16:33.120Z,83.22
2023-01-09T06:19:00.183Z,83.70
2023-01-09T06:21:30.114Z,83.25
2023-01-09T06:24:00.385Z,82.54
2023-01-09T06:26:33.014Z,82.04
2023-01-09T06:29:01.161Z,81.33
2023-01-09T06:31:47.649Z,81.89
2023-01-09T06:34:17.905Z,81.69
2023-01-09T06:36:44.710Z,81.99
2023-01-09T06:39:13.921Z,82.26
2023-01-09T06:41:49.453Z,82.89
2023-01-09T06:44:16.510Z,82.42
2023-01-09T06:46:43.398Z,83.02
2023-01-09T06:49:10.392Z,83.56
2023-01-09T06:51:37.763Z,83.50
2023-01-09T06:54:07.680Z,83.40
2023-01-09T06:56:34.543Z,82.76
2023-01-09T06:59:01.673Z,82.77
2023-01-09T07:01:28.686Z,82.84
2023-01-09T07:03:55.770Z,83.09
2023-01-09T07:06:22.919Z,83.74
2023-01-09T07:08:49.856Z,84.16
2023-01-09T07:11:16.754Z,83.65
2023-01-09T07:13:43.755Z,82.67
2023-01-09T07:16:10.781Z,83.20
2023-01-09T07:18:38.782Z,83.96
2023-01-09T07:21:06.404Z,83.46
2023-01-09T07:23:33.747Z,82.41
2023-01-09T07:26:01.647Z,83.51
2023-01-09T07:28:28.779Z,82.65
2023-01-09T07:30:55.929Z,82.33
2023-01-09T07:33:42.095Z,82.69
2023-01-09T07:36:11.437Z,82.99
2023-01-09T07:38:42.750Z,82.94
2023-01-09T07:41:11.480Z,83.67
2023-01-09T07:43:59.017Z,83.40
2023-01-09T07:46:48.736Z,83.45
2023-01-09T07:49:15.663Z,83.92
2023-01-09T07:51:45.208Z,83.26
2023-01-09T07:54:12.905Z,82.97
2023-01-09T07:56:42.332Z,82.23
2023-01-09T08:04:12.443Z,82.70
2023-01-09T08:32:41.985Z,84.82
2023-01-09T08:46:52.098Z,82.47
2023-01-09T08:53:51.017Z,82.15
2023-01-09T08:57:04.088Z,81.14
2023-01-09T09:00:13.782Z,81.59
2023-01-09T09:02:44.983Z,81.53
2023-01-09T09:05:14.591Z,81.22
2023-01-09T09:07:48.684Z,81.21
2023-01-09T09:10:43.757Z,81.70
2023-01-09T09:13:12.930Z,82.21
2023-01-09T09:15:50.235Z,82.28
2023-01-09T09:18:21.890Z,82.51
2023-01-09T09:24:49.316Z,82.01
2023-01-09T09:30:53.308Z,82.79
2023-01-09T09:33:23.618Z,82.48
2023-01-09T09:39:34.564Z,82.70
2023-01-09T10:07:43.069Z,79.78
2023-01-09T10:42:01.420Z,79.11
2023-01-09T11:21:30.954Z,77.05
2023-01-09T11:43:16.241Z,76.19
2023-01-09T12:26:20.569Z,73.77
2023-01-09T13:38:49.391Z,72.60
2023-01-09T13:41:36.937Z,72.57
2023-01-09T13:44:31.019Z,72.60
2023-01-09T13:47:22.855Z,72.79
2023-01-09T13:50:27.638Z,73.06
2023-01-09T13:53:34.934Z,73.31
2023-01-09T13:56:07.326Z,73.27
2023-01-09T13:58:37.793Z,73.34
2023-01-09T14:01:44.612Z,73.35
2023-01-09T14:04:23.014Z,73.78
2023-01-09T14:07:22.509Z,74.03
2023-01-09T14:09:56.070Z,74.33
2023-01-09T14:12:31.667Z,74.27
2023-01-09T14:15:29.654Z,74.55
2023-01-09T14:18:15.286Z,74.53
2023-01-09T14:25:57.667Z,74.90
2023-01-09T14:34:24.042Z,75.08
2023-01-09T14:37:00.444Z,75.22
2023-01-09T14:39:35.028Z,75.34
2023-01-09T14:42:09.021Z,75.16
2023-01-09T14:44:41.859Z,75.52
2023-01-09T14:47:36.150Z,75.94
2023-01-09T14:51:02.192Z,76.11
2023-01-09T14:53:37.199Z,76.22
2023-01-09T14:56:30.884Z,76.42
2023-01-09T14:59:16.162Z,77.06
2023-01-09T15:01:48.768Z,77.00
2023-01-09T15:04:50.142Z,76.97
2023-01-09T15:07:43.977Z,76.92
2023-01-09T15:10:28.189Z,76.88
2023-01-09T15:13:16.980Z,76.75
2023-01-09T15:16:41.806Z,76.90
2023-01-09T15:19:15.981Z,77.33
2023-01-09T15:22:01.315Z,77.28
2023-01-09T15:24:36.647Z,76.90
2023-01-09T15:27:21.313Z,77.22
2023-01-09T15:30:09.918Z,77.80
2023-01-09T15:32:50.092Z,78.10
2023-01-09T15:42:20.044Z,77.35
2023-01-09T15:45:34.352Z,77.20
2023-01-09T15:52:24.973Z,77.29
2023-01-09T15:55:39.061Z,77.00
2023-01-09T15:59:20.147Z,76.87
2023-01-09T16:02:20.985Z,76.79
2023-01-09T16:05:23.636Z,76.67
2023-01-09T16:08:25.183Z,76.58
2023-01-09T16:10:55.925Z,76.82
2023-01-09T16:13:27.019Z,76.30
2023-01-09T16:16:22.641Z,76.45
2023-01-09T16:18:53.471Z,76.48
2023-01-09T16:21:52.513Z,76.55
2023-01-09T16:24:42.315Z,76.48
2023-01-09T16:27:35.501Z,76.38
2023-01-09T16:30:25.951Z,76.40
2023-01-09T16:32:54.821Z,76.36
2023-01-09T16:35:26.573Z,76.38
2023-01-09T16:37:54.521Z,76.78
2023-01-09T16:40:30.265Z,76.72
2023-01-09T16:42:59.956Z,76.43
2023-01-09T16:45:29.825Z,76.52
2023-01-09T16:47:57.682Z,76.69
2023-01-09T16:50:26.238Z,76.76
2023-01-09T16:52:54.519Z,76.87
2023-01-09T16:55:29.260Z,76.39
2023-01-09T16:57:57.480Z,76.22
2023-01-09T17:00:47.529Z,76.36
2023-01-09T17:03:15.334Z,76.03
2023-01-09T17:06:04.181Z,75.88
2023-01-09T17:08:41.273Z,75.90
2023-01-09T17:11:18.332Z,76.11
2023-01-09T17:13:51.379Z,75.93
2023-01-09T17:16:19.112Z,75.74
2023-01-09T17:18:46.455Z,75.74
2023-01-09T17:21:24.372Z,75.91
2023-01-09T17:24:09.769Z,76.14
2023-01-09T17:26:58.656Z,76.02
2023-01-09T17:29:27.004Z,75.94
2023-01-09T17:31:54.207Z,75.74
2023-01-09T17:34:21.040Z,75.54
2023-01-09T17:36:49.425Z,75.52
2023-01-09T17:39:17.828Z,75.49
2023-01-09T17:41:53.046Z,75.38
2023-01-09T17:44:20.847Z,75.42
2023-01-09T17:46:49.041Z,75.47
2023-01-09T17:49:19.514Z,75.64
2023-01-09T17:51:46.392Z,75.64
2023-01-09T17:54:13.357Z,75.52
2023-01-09T17:56:52.854Z,75.36
2023-01-09T17:59:19.846Z,75.35
2023-01-09T18:01:54.660Z,75.24
2023-01-09T18:04:25.827Z,75.36
2023-01-09T18:06:54.082Z,75.88
2023-01-09T18:09:24.097Z,75.90
2023-01-09T18:11:51.939Z,75.94
2023-01-09T18:14:18.941Z,76.01
2023-01-09T18:16:45.809Z,76.05
2023-01-09T18:19:12.802Z,76.20
2023-01-09T18:21:39.631Z,76.55
2023-01-09T18:24:10.018Z,76.28
2023-01-09T18:26:39.468Z,76.39
2023-01-09T18:29:08.574Z,76.37
2023-01-09T18:31:42.019Z,76.24
2023-01-09T18:34:08.970Z,76.21
2023-01-09T18:36:35.868Z,76.09
2023-01-09T18:39:08.256Z,75.83
2023-01-09T18:41:35.473Z,75.88
2023-01-09T18:44:02.501Z,75.87
2023-01-09T18:46:32.907Z,75.95
2023-01-09T18:49:10.931Z,75.70
2023-01-09T18:51:37.989Z,75.67
2023-01-09T18:54:08.680Z,75.59
2023-01-09T18:56:40.134Z,75.49
2023-01-09T18:59:09.075Z,75.20
2023-01-09T19:01:36.006Z,75.11
2023-01-09T19:04:03.020Z,75.14
2023-01-09T19:06:30.833Z,75.06
2023-01-09T19:09:02.020Z,74.98
2023-01-09T19:11:29.051Z,74.86
2023-01-09T19:13:55.921Z,74.70
2023-01-09T19:16:22.861Z,74.67
2023-01-09T19:18:50.937Z,74.59
2023-01-09T19:21:21.857Z,74.69
2023-01-09T19:23:50.151Z,74.73
2023-01-09T19:26:23.398Z,74.84
2023-01-09T19:28:54.512Z,74.71
2023-01-09T19:31:25.346Z,74.62
2023-01-09T19:33:54.708Z,74.72
2023-01-09T19:36:55.058Z,74.75
2023-01-09T19:39:26.639Z,75.02
2023-01-09T19:42:00.265Z,75.14
2023-01-09T19:44:27.237Z,75.51
2023-01-09T19:46:55.134Z,75.48
2023-01-09T19:49:24.040Z,75.26
2023-01-09T19:51:55.317Z,75.24
2023-01-09T19:54:22.324Z,76.19
2023-01-09T19:56:49.272Z,75.91
2023-01-09T19:59:16.182Z,76.30
2023-01-09T20:01:44.643Z,76.40
2023-01-09T20:04:16.659Z,76.59
2023-01-09T20:06:48.193Z,76.56
2023-01-09T20:09:18.001Z,77.21
2023-01-09T20:11:44.856Z,76.81
2023-01-09T20:14:13.355Z,76.63
2023-01-09T20:16:42.534Z,76.70
2023-01-09T20:19:11.881Z,76.62
2023-01-09T20:21:42.713Z,76.64
2023-01-09T20:24:14.010Z,76.66
2023-01-09T20:26:41.277Z,76.61
2023-01-09T20:29:08.356Z,76.51
2023-01-09T20:31:35.756Z,76.54
2023-01-09T20:34:17.467Z,76.43
2023-01-09T20:36:47.483Z,76.39
2023-01-09T20:39:16.866Z,76.46
2023-01-09T20:41:51.217Z,76.49
2023-01-09T20:44:18.143Z,76.47
2023-01-09T20:46:49.935Z,76.68
2023-01-09T20:49:20.323Z,76.69
2023-01-09T20:51:51.326Z,76.74
2023-01-09T20:54:20.873Z,76.87
2023-01-09T20:56:48.853Z,76.66
2023-01-09T20:59:22.957Z,77.14
2023-01-09T21:01:50.847Z,77.16
2023-01-09T21:04:18.626Z,77.42
2023-01-09T21:06:47.041Z,77.49
2023-01-09T21:09:15.502Z,77.97
2023-01-09T21:11:42.408Z,78.03
2023-01-09T21:14:09.368Z,78.25
2023-01-09T21:16:41.833Z,77.69
2023-01-09T21:19:12.805Z,78.01
2023-01-09T21:21:40.367Z,78.33
2023-01-09T21:24:07.677Z,78.65
2023-01-09T21:26:36.119Z,78.32
2023-01-09T21:29:12.822Z,78.35
2023-01-09T21:31:39.948Z,78.32
2023-01-09T21:34:07.721Z,78.62
2023-01-09T21:36:35.548Z,78.44
2023-01-09T21:39:08.301Z,78.55
2023-01-09T21:42:03.282Z,78.71
2023-01-09T21:44:52.887Z,78.73
2023-01-09T21:47:19.777Z,78.94
2023-01-09T21:49:46.737Z,79.03
2023-01-09T21:52:14.568Z,79.11
2023-01-09T21:54:41.652Z,79.63
2023-01-09T21:57:10.484Z,79.57
2023-01-09T21:59:37.394Z,79.71
2023-01-09T22:02:05.572Z,79.49
2023-01-09T22:04:33.044Z,79.68
2023-01-09T22:06:59.909Z,79.58
2023-01-09T22:09:28.811Z,79.79
2023-01-09T22:11:57.163Z,79.81
2023-01-09T22:14:23.961Z,79.68
2023-01-09T22:16:50.878Z,79.69
2023-01-09T22:19:17.598Z,80.12
2023-01-09T22:21:49.345Z,80.28
2023-01-09T22:24:19.004Z,80.58
2023-01-09T22:26:45.925Z,80.82
2023-01-09T22:29:13.839Z,81.14
2023-01-09T22:31:42.357Z,81.04
2023-01-09T22:34:14.488Z,81.17
2023-01-09T22:36:41.966Z,81.55
2023-01-09T22:39:12.881Z,81.64
2023-01-09T22:41:49.765Z,81.94
2023-01-09T22:44:16.587Z,82.05
2023-01-09T22:46:47.216Z,82.19
2023-01-09T22:49:19.129Z,82.51
2023-01-09T22:51:45.951Z,82.72
2023-01-09T22:54:13.631Z,82.92
2023-01-09T22:56:40.399Z,82.91
2023-01-09T22:59:12.257Z,82.89
2023-01-09T23:01:39.122Z,83.21
2023-01-09T23:04:06.425Z,82.88
2023-01-09T23:06:33.279Z,82.60
2023-01-09T23:09:00.040Z,82.65
2023-01-09T23:11:47.734Z,83.21
2023-01-09T23:14:14.427Z,83.61
2023-01-09T23:16:41.506Z,83.54
2023-01-09T23:19:09.338Z,83.93
2023-01-09T23:21:38.176Z,83.87
2023-01-09T23:24:06.434Z,83.56
2023-01-09T23:26:34.194Z,83.71
2023-01-09T23:29:01.633Z,83.72
2023-01-09T23:31:29.518Z,83.77
2023-01-09T23:33:56.509Z,83.84
2023-01-09T23:36:24.296Z,83.74
2023-01-09T23:38:51.194Z,83.72
2023-01-09T23:41:21.766Z,83.51
2023-01-09T23:43:48.467Z,83.98
2023-01-09T23:46:16.356Z,84.08
2023-01-09T23:48:43.043Z,83.75
2023-01-09T23:51:09.934Z,83.78
2023-01-09T23:53:37.686Z,83.82
2023-01-09T23:56:05.119Z,83.83
2023-01-09T23:58:33.993Z,83.64
